createdAt,value
2023-05-21T00:02:21.570Z,21.00
2023-05-21T00:04:49.734Z,16.00
2023-05-21T00:07:18.982Z,17.00
2023-05-21T00:09:47.287Z,18.00
2023-05-21T00:12:15.470Z,19.50
2023-05-21T00:14:43.582Z,21.00
2023-05-21T00:17:11.741Z,18.50
2023-05-21T00:19:40.533Z,18.00
2023-05-21T00:22:09.502Z,18.00
2023-05-21T00:24:37.683Z,15.00
2023-05-21T00:27:05.994Z,15.50
2023-05-21T00:32:02.107Z,17.00
2023-05-21T00:34:30.341Z,15.50
2023-05-21T00:36:58.601Z,15.00
2023-05-21T00:39:26.742Z,13.00
2023-05-21T00:41:57.161Z,15.00
2023-05-21T00:46:53.933Z,11.00
2023-05-21T00:49:24.701Z,11.00
2023-05-21T00:51:53.164Z,16.00
2023-05-21T00:54:22.084Z,12.50
2023-05-21T00:59:19.461Z,13.00
2023-05-21T01:02:48.043Z,13.00
2023-05-21T01:06:40.027Z,10.50
2023-05-21T01:09:26.666Z,11.50
2023-05-21T01:11:56.522Z,15.00
2023-05-21T01:14:25.574Z,15.00
2023-05-21T01:16:53.920Z,16.00
2023-05-21T01:19:44.562Z,13.00
2023-05-21T01:22:14.413Z,14.00
2023-05-21T01:24:47.778Z,13.00
2023-05-21T01:27:16.206Z,15.00
2023-05-21T01:30:44.853Z,13.00
2023-05-21T01:33:41.945Z,13.50
2023-05-21T01:36:16.080Z,14.50
2023-05-21T01:39:47.724Z,14.50
2023-05-21T01:43:13.968Z,14.00
2023-05-21T01:45:44.222Z,17.00
2023-05-21T01:48:13.719Z,20.00
2023-05-21T01:53:10.845Z,18.00
2023-05-21T01:55:42.109Z,15.50
2023-05-21T01:58:10.645Z,16.00
2023-05-21T02:01:39.528Z,20.00
2023-05-21T02:05:49.522Z,13.50
2023-05-21T02:08:38.700Z,21.00
2023-05-21T02:12:06.859Z,20.00
2023-05-21T02:14:35.099Z,14.50
2023-05-21T02:19:39.814Z,21.00
2023-05-21T02:22:07.980Z,17.50
2023-05-21T02:27:06.430Z,16.50
2023-05-21T02:32:03.124Z,18.00
2023-05-21T02:34:32.380Z,18.00
2023-05-21T02:37:01.828Z,15.00
2023-05-21T02:40:30.581Z,16.50
2023-05-21T02:43:07.466Z,15.00
2023-05-21T02:45:36.107Z,16.00
2023-05-21T02:48:04.406Z,15.00
2023-05-21T02:51:34.129Z,11.00
2023-05-21T02:56:51.642Z,13.00
2023-05-21T02:59:19.650Z,14.00
2023-05-21T03:02:28.388Z,13.00
2023-05-21T03:04:56.543Z,15.00
2023-05-21T03:07:24.844Z,14.00
2023-05-21T03:09:52.969Z,13.00
2023-05-21T03:12:21.057Z,16.00
2023-05-21T03:14:51.460Z,17.00
2023-05-21T03:17:22.354Z,15.00
2023-05-21T03:19:50.507Z,15.50
2023-05-21T03:22:20.201Z,14.00
2023-05-21T03:24:48.776Z,15.50
2023-05-21T03:27:17.049Z,16.00
2023-05-21T03:29:46.104Z,14.00
2023-05-21T03:32:14.672Z,15.00
2023-05-21T03:34:43.253Z,16.00
2023-05-21T03:37:11.288Z,17.00
2023-05-21T03:39:39.562Z,12.00
2023-05-21T03:42:07.932Z,15.00
2023-05-21T03:44:43.157Z,15.00
2023-05-21T03:47:29.825Z,17.00
2023-05-21T03:49:58.292Z,15.00
2023-05-21T03:53:27.038Z,15.50
2023-05-21T03:56:32.157Z,13.00
2023-05-21T04:01:28.653Z,13.50
2023-05-21T04:03:57.296Z,14.50
2023-05-21T04:06:25.580Z,14.00
2023-05-21T04:08:53.800Z,14.00
2023-05-21T04:11:22.656Z,11.00
2023-05-21T04:13:51.739Z,11.00
2023-05-21T04:16:19.804Z,19.00
2023-05-21T04:18:48.416Z,12.00
2023-05-21T04:21:17.013Z,13.00
2023-05-21T04:24:46.056Z,14.00
2023-05-21T04:27:39.859Z,10.00
2023-05-21T04:30:08.797Z,12.00
2023-05-21T04:32:38.565Z,11.00
2023-05-21T04:37:36.452Z,12.00
2023-05-21T04:40:04.960Z,13.50
2023-05-21T04:43:33.714Z,11.00
2023-05-21T04:47:02.309Z,10.00
2023-05-21T04:49:30.973Z,10.00
2023-05-21T04:51:59.282Z,14.00
2023-05-21T04:54:27.766Z,14.00
2023-05-21T04:56:56.068Z,10.00
2023-05-21T05:02:32.293Z,11.00
2023-05-21T05:05:01.644Z,10.50
2023-05-21T05:08:30.140Z,9.50
2023-05-21T05:11:38.573Z,9.00
2023-05-21T05:15:07.294Z,9.00
2023-05-21T05:17:39.922Z,8.00
2023-05-21T05:20:10.060Z,10.00
2023-05-21T05:23:02.738Z,8.00
2023-05-21T05:25:30.940Z,10.00
2023-05-21T05:27:59.335Z,12.00
2023-05-21T05:30:27.588Z,9.00
2023-05-21T05:32:57.392Z,9.00
2023-05-21T05:35:25.950Z,8.00
2023-05-21T05:37:53.934Z,11.00
2023-05-21T05:40:22.052Z,9.50
2023-05-21T05:42:52.682Z,10.50
2023-05-21T05:45:21.197Z,10.00
2023-05-21T05:47:49.278Z,10.00
2023-05-21T05:50:17.353Z,9.00
2023-05-21T05:52:45.446Z,12.00
2023-05-21T05:55:13.587Z,11.00
2023-05-21T05:57:43.727Z,8.50
2023-05-21T06:00:15.062Z,10.00
2023-05-21T06:02:45.178Z,11.00
2023-05-21T06:08:01.600Z,11.50
2023-05-21T06:10:29.632Z,11.00
2023-05-21T06:12:57.721Z,10.00
2023-05-21T06:15:25.933Z,7.50
2023-05-21T06:17:54.135Z,8.00
2023-05-21T06:20:22.341Z,9.50
2023-05-21T06:25:23.265Z,10.00
2023-05-21T06:27:51.696Z,12.00
2023-05-21T06:30:22.585Z,10.50
2023-05-21T06:35:58.875Z,9.00
2023-05-21T06:38:26.985Z,9.00
2023-05-21T06:40:55.255Z,12.00
2023-05-21T06:43:42.709Z,8.00
2023-05-21T06:46:31.144Z,8.00
2023-05-21T06:49:01.117Z,7.00
2023-05-21T06:53:57.252Z,10.00
2023-05-21T06:56:26.626Z,12.00
2023-05-21T06:58:56.159Z,10.00
2023-05-21T07:01:24.537Z,8.00
2023-05-21T07:03:53.123Z,3.50
2023-05-21T07:06:41.860Z,7.00
2023-05-21T07:09:10.411Z,9.00
2023-05-21T07:11:39.045Z,9.50
2023-05-21T07:17:37.993Z,9.00
2023-05-21T07:21:10.076Z,7.00
2023-05-21T07:24:00.677Z,9.00
2023-05-21T07:29:56.266Z,7.00
2023-05-21T07:32:24.677Z,6.00
2023-05-21T07:34:54.351Z,8.00
2023-05-21T07:37:23.112Z,7.00
2023-05-21T07:39:51.293Z,6.00
2023-05-21T07:42:19.407Z,7.00
2023-05-21T07:44:47.477Z,7.00
2023-05-21T07:48:15.981Z,6.50
2023-05-21T07:50:53.415Z,8.00
2023-05-21T07:53:21.843Z,6.00
2023-05-21T07:55:51.460Z,6.00
2023-05-21T07:59:43.209Z,7.00
2023-05-21T08:02:12.480Z,7.00
2023-05-21T08:04:41.489Z,9.50
2023-05-21T08:08:09.920Z,8.00
2023-05-21T08:11:00.594Z,5.00
2023-05-21T08:13:29.036Z,6.50
2023-05-21T08:15:57.706Z,7.00
2023-05-21T08:18:45.789Z,7.00
2023-05-21T08:21:13.930Z,5.00
2023-05-21T08:23:42.088Z,7.00
2023-05-21T08:26:10.791Z,6.00
2023-05-21T08:28:48.285Z,6.00
2023-05-21T08:31:18.752Z,6.00
2023-05-21T08:36:21.410Z,4.50
2023-05-21T08:38:54.963Z,5.00
2023-05-21T08:41:28.908Z,5.00
2023-05-21T08:46:34.616Z,3.50
2023-05-21T08:51:31.544Z,5.00
2023-05-21T08:54:01.815Z,7.00
2023-05-21T09:00:00.553Z,5.00
2023-05-21T09:02:36.496Z,6.00
2023-05-21T09:05:05.726Z,8.00
2023-05-21T09:07:56.714Z,6.00
2023-05-21T09:11:51.143Z,4.00
2023-05-21T09:17:20.277Z,4.00
2023-05-21T09:20:12.351Z,4.00
2023-05-21T09:22:47.257Z,5.00
2023-05-21T09:25:17.102Z,4.00
2023-05-21T09:27:45.256Z,5.00
2023-05-21T09:32:43.888Z,4.00
2023-05-21T09:37:45.724Z,6.00
2023-05-21T09:40:15.579Z,4.50
2023-05-21T09:42:51.762Z,4.00
2023-05-21T09:45:26.283Z,4.00
2023-05-21T09:47:56.425Z,5.00
2023-05-21T09:50:29.585Z,4.00
2023-05-21T09:52:58.408Z,5.00
2023-05-21T09:55:26.766Z,6.00
2023-05-21T09:57:55.031Z,4.00
2023-05-21T10:00:43.104Z,4.00
2023-05-21T10:03:14.544Z,5.00
2023-05-21T10:05:42.769Z,4.50
2023-05-21T10:08:14.404Z,4.00
2023-05-21T10:13:12.960Z,4.00
2023-05-21T10:15:44.219Z,4.00
2023-05-21T10:18:13.771Z,4.00
2023-05-21T10:20:43.108Z,3.00
2023-05-21T10:23:13.072Z,3.00
2023-05-21T10:25:42.005Z,3.50
2023-05-21T10:28:10.750Z,5.00
2023-05-21T10:31:00.149Z,2.50
2023-05-21T10:33:29.400Z,3.00
2023-05-21T10:35:58.799Z,4.00
2023-05-21T10:38:27.977Z,5.00
2023-05-21T10:40:56.650Z,4.50
2023-05-21T10:44:06.360Z,4.00
2023-05-21T10:46:57.879Z,3.00
2023-05-21T10:50:01.533Z,6.00
2023-05-21T10:52:57.152Z,5.00
2023-05-21T10:55:51.398Z,4.00
2023-05-21T10:58:55.440Z,4.00
2023-05-21T11:01:23.688Z,4.00
2023-05-21T11:03:52.086Z,3.00
2023-05-21T11:06:27.465Z,6.00
2023-05-21T11:08:55.968Z,4.00
2023-05-21T11:11:44.142Z,6.00
2023-05-21T11:14:32.777Z,5.50
2023-05-21T11:17:02.897Z,4.00
2023-05-21T11:19:47.408Z,5.00
2023-05-21T11:22:24.957Z,4.00
2023-05-21T11:27:54.475Z,5.00
2023-05-21T11:30:22.549Z,4.00
2023-05-21T11:34:09.639Z,6.00
2023-05-21T11:36:39.048Z,5.00
2023-05-21T11:41:59.498Z,4.00
2023-05-21T11:44:40.024Z,6.00
2023-05-21T11:47:16.609Z,5.00
2023-05-21T11:52:15.783Z,4.00
2023-05-21T11:54:50.736Z,4.00
2023-05-21T11:57:19.627Z,5.00
2023-05-21T11:59:53.779Z,5.00
2023-05-21T12:02:22.934Z,4.00
2023-05-21T12:04:51.669Z,4.00
2023-05-21T12:07:20.366Z,6.00
2023-05-21T12:09:50.250Z,6.50
2023-05-21T12:12:21.588Z,5.00
2023-05-21T12:14:51.426Z,5.50
2023-05-21T12:19:49.769Z,6.00
2023-05-21T12:22:17.986Z,6.00
2023-05-21T12:24:46.545Z,4.00
2023-05-21T12:27:16.991Z,8.00
2023-05-21T12:32:15.006Z,5.00
2023-05-21T12:34:47.216Z,6.00
2023-05-21T12:37:16.229Z,3.50
2023-05-21T12:39:48.590Z,3.50
2023-05-21T12:44:47.093Z,5.00
2023-05-21T12:47:15.273Z,6.00
2023-05-21T12:49:44.980Z,6.00
2023-05-21T12:52:15.035Z,6.00
2023-05-21T12:57:19.495Z,5.00
2023-05-21T13:00:00.325Z,7.00
2023-05-21T13:02:39.013Z,3.00
2023-05-21T13:06:07.560Z,5.00
2023-05-21T13:08:38.198Z,5.50
2023-05-21T13:11:06.197Z,7.00
2023-05-21T13:13:34.761Z,4.00
2023-05-21T13:16:02.870Z,8.00
2023-05-21T13:18:30.852Z,6.50
2023-05-21T13:20:59.099Z,7.00
2023-05-21T13:25:55.202Z,6.00
2023-05-21T13:28:24.686Z,5.00
2023-05-21T13:30:55.058Z,6.00
2023-05-21T13:33:23.199Z,5.50
2023-05-21T13:36:51.675Z,5.00
2023-05-21T13:39:26.730Z,5.00
2023-05-21T13:41:54.804Z,5.00
2023-05-21T13:44:42.758Z,5.00
2023-05-21T13:47:12.129Z,5.00
2023-05-21T13:52:09.728Z,5.50
2023-05-21T13:54:57.784Z,5.00
2023-05-21T13:59:55.648Z,7.00
2023-05-21T14:02:23.659Z,5.00
2023-05-21T14:04:51.852Z,5.00
2023-05-21T14:07:19.915Z,4.00
2023-05-21T14:09:47.961Z,6.00
2023-05-21T14:12:17.056Z,5.00
2023-05-21T14:14:46.114Z,5.00
2023-05-21T14:17:14.142Z,5.00
2023-05-21T14:19:42.080Z,5.00
2023-05-21T14:24:38.072Z,7.00
2023-05-21T14:27:06.127Z,6.00
2023-05-21T14:29:34.235Z,6.00
2023-05-21T14:32:02.435Z,7.00
2023-05-21T14:34:30.793Z,6.50
2023-05-21T14:36:59.236Z,6.00
2023-05-21T14:39:27.490Z,7.50
2023-05-21T14:41:55.651Z,5.50
2023-05-21T14:44:23.804Z,6.00
2023-05-21T14:46:51.974Z,6.00
2023-05-21T14:49:20.139Z,6.00
2023-05-21T14:59:12.996Z,6.50
2023-05-21T15:01:41.299Z,7.50
2023-05-21T15:04:09.669Z,7.00
2023-05-21T15:06:38.052Z,8.00
2023-05-21T15:11:34.517Z,7.00
2023-05-21T15:14:02.531Z,6.50
2023-05-21T15:16:31.405Z,7.00
2023-05-21T15:21:28.213Z,6.00
2023-05-21T15:23:56.403Z,7.00
2023-05-21T15:26:26.435Z,9.00
2023-05-21T15:31:22.580Z,8.00
2023-05-21T15:33:50.783Z,6.00
2023-05-21T15:36:59.972Z,6.00
2023-05-21T15:39:28.695Z,7.00
2023-05-21T15:41:56.769Z,6.50
2023-05-21T15:44:25.640Z,5.00
2023-05-21T15:49:23.177Z,7.00
2023-05-21T15:51:51.678Z,7.00
2023-05-21T15:54:19.700Z,6.00
2023-05-21T15:56:47.787Z,8.00
2023-05-21T15:59:16.410Z,7.00
2023-05-21T16:01:45.067Z,6.00
2023-05-21T16:06:41.711Z,6.00
2023-05-21T16:09:09.932Z,6.00
2023-05-21T16:11:38.018Z,6.00
2023-05-21T16:14:06.231Z,5.50
2023-05-21T16:16:34.365Z,7.00
2023-05-21T16:19:02.719Z,7.50
2023-05-21T16:21:32.006Z,6.50
2023-05-21T16:24:00.278Z,7.00
2023-05-21T16:26:28.864Z,8.00
2023-05-21T16:28:58.817Z,6.50
2023-05-21T16:31:27.572Z,7.00
2023-05-21T16:33:55.968Z,7.50
2023-05-21T16:36:24.080Z,7.50
2023-05-21T16:39:00.971Z,6.50
2023-05-21T16:41:29.225Z,8.50
2023-05-21T16:43:57.249Z,7.00
2023-05-21T16:46:25.316Z,6.00
2023-05-21T16:49:13.389Z,5.00
2023-05-21T16:51:41.553Z,6.00
2023-05-21T16:54:09.568Z,4.00
2023-05-21T16:56:37.700Z,7.00
2023-05-21T16:59:05.777Z,5.00
2023-05-21T17:01:33.902Z,5.50
2023-05-21T17:04:16.778Z,7.00
2023-05-21T17:06:44.758Z,5.00
2023-05-21T17:10:12.939Z,6.00
2023-05-21T17:14:02.120Z,5.00
2023-05-21T17:17:13.054Z,4.50
2023-05-21T17:19:43.240Z,4.50
2023-05-21T17:22:14.389Z,5.00
2023-05-21T17:24:42.868Z,8.50
2023-05-21T17:27:11.268Z,6.00
2023-05-21T17:29:39.688Z,5.50
2023-05-21T17:32:10.297Z,7.00
2023-05-21T17:34:38.926Z,6.00
2023-05-21T17:37:07.087Z,6.00
2023-05-21T17:39:35.235Z,5.00
2023-05-21T17:42:03.492Z,5.00
2023-05-21T17:44:32.174Z,4.50
2023-05-21T17:47:00.437Z,8.00
2023-05-21T17:50:29.337Z,5.00
2023-05-21T17:53:41.236Z,5.50
2023-05-21T17:56:11.393Z,6.00
2023-05-21T17:58:39.544Z,5.50
2023-05-21T18:01:08.126Z,7.50
2023-05-21T18:03:36.269Z,8.00
2023-05-21T18:06:04.982Z,6.00
2023-05-21T18:08:32.903Z,5.00
2023-05-21T18:11:01.707Z,4.00
2023-05-21T18:13:30.107Z,5.00
2023-05-21T18:15:59.035Z,4.00
2023-05-21T18:20:55.446Z,4.50
2023-05-21T18:23:23.544Z,4.00
2023-05-21T18:25:51.522Z,3.00
2023-05-21T18:30:48.471Z,4.00
2023-05-21T18:33:16.999Z,4.50
2023-05-21T18:35:45.269Z,5.00
2023-05-21T18:38:13.460Z,5.00
2023-05-21T18:40:41.692Z,4.00
2023-05-21T18:43:11.005Z,4.00
2023-05-21T18:45:39.109Z,4.50
2023-05-21T18:48:07.348Z,4.00
2023-05-21T18:53:06.051Z,5.00
2023-05-21T18:55:34.801Z,4.00
2023-05-21T18:58:03.213Z,5.00
2023-05-21T19:00:31.990Z,5.00
2023-05-21T19:03:00.598Z,4.50
2023-05-21T19:05:29.842Z,4.50
2023-05-21T19:07:59.389Z,5.00
2023-05-21T19:10:28.147Z,6.00
2023-05-21T19:12:57.366Z,6.00
2023-05-21T19:15:25.393Z,6.00
2023-05-21T19:17:53.420Z,4.50
2023-05-21T19:23:06.838Z,7.00
2023-05-21T19:25:35.845Z,5.00
2023-05-21T19:28:04.033Z,4.50
2023-05-21T19:30:35.043Z,5.00
2023-05-21T19:33:04.181Z,6.00
2023-05-21T19:35:33.373Z,8.00
2023-05-21T19:38:04.110Z,8.00
2023-05-21T19:40:33.698Z,8.00
2023-05-21T19:45:31.090Z,7.00
2023-05-21T19:48:00.024Z,8.50
2023-05-21T19:50:28.935Z,6.00
2023-05-21T19:52:57.398Z,5.50
2023-05-21T19:55:25.545Z,4.00
2023-05-21T19:57:53.634Z,5.50
2023-05-21T20:02:50.639Z,7.00
2023-05-21T20:05:20.318Z,6.00
2023-05-21T20:10:16.601Z,6.00
2023-05-21T20:12:44.730Z,5.00
2023-05-21T20:15:14.536Z,5.00
2023-05-21T20:17:44.249Z,6.50
2023-05-21T20:20:12.966Z,7.00
2023-05-21T20:23:03.466Z,5.00
2023-05-21T20:25:32.042Z,8.00
2023-05-21T20:28:04.064Z,6.50
2023-05-21T20:30:33.480Z,4.00
2023-05-21T20:33:03.077Z,5.00
2023-05-21T20:35:31.269Z,3.50
2023-05-21T20:38:02.700Z,6.00
2023-05-21T20:40:30.801Z,6.00
2023-05-21T20:43:01.768Z,4.00
2023-05-21T20:45:29.987Z,5.00
2023-05-21T20:47:58.037Z,6.00
2023-05-21T20:50:28.761Z,5.00
2023-05-21T20:52:58.279Z,7.00
2023-05-21T20:55:26.563Z,2.00
2023-05-21T20:57:54.659Z,4.00
2023-05-21T21:00:22.966Z,4.00
2023-05-21T21:03:11.753Z,4.00
2023-05-21T21:05:40.003Z,4.00
2023-05-21T21:08:08.345Z,3.50
2023-05-21T21:10:36.919Z,5.00
2023-05-21T21:15:35.568Z,3.00
2023-05-21T21:18:03.996Z,4.00
2023-05-21T21:20:32.208Z,5.00
2023-05-21T21:23:00.221Z,2.00
2023-05-21T21:25:28.462Z,3.00
2023-05-21T21:27:56.436Z,4.00
2023-05-21T21:30:24.425Z,5.00
2023-05-21T21:32:53.314Z,5.00
2023-05-21T21:35:43.585Z,4.00
2023-05-21T21:38:11.586Z,4.00
2023-05-21T21:40:39.833Z,6.00
2023-05-21T21:43:08.215Z,6.00
2023-05-21T21:45:36.484Z,5.00
2023-05-21T21:48:04.676Z,6.00
2023-05-21T21:50:32.744Z,4.50
2023-05-21T21:53:01.267Z,3.00
2023-05-21T21:55:51.102Z,3.00
2023-05-21T21:58:19.300Z,5.00
2023-05-21T22:00:47.479Z,4.00
2023-05-21T22:03:16.583Z,2.50
2023-05-21T22:05:45.066Z,4.00
2023-05-21T22:10:41.754Z,4.00
2023-05-21T22:13:09.934Z,2.00
2023-05-21T22:16:38.507Z,4.00
2023-05-21T22:19:06.666Z,4.00
2023-05-21T22:21:34.757Z,3.00
2023-05-21T22:24:02.822Z,4.00
2023-05-21T22:26:51.049Z,3.00
2023-05-21T22:29:19.056Z,3.50
2023-05-21T22:31:47.150Z,4.00
2023-05-21T22:34:15.249Z,4.00
2023-05-21T22:37:03.279Z,2.00
2023-05-21T22:39:31.353Z,4.00
2023-05-21T22:41:59.642Z,3.00
2023-05-21T22:44:27.968Z,4.50
2023-05-21T22:47:49.302Z,4.00
2023-05-21T22:50:18.520Z,2.00
2023-05-21T22:52:46.836Z,5.00
2023-05-21T22:55:16.580Z,3.00
2023-05-21T22:58:24.645Z,5.00
2023-05-21T23:00:52.602Z,5.00
2023-05-21T23:03:20.749Z,3.50
2023-05-21T23:06:29.526Z,4.00
2023-05-21T23:08:57.804Z,2.50
2023-05-21T23:11:26.704Z,5.00
2023-05-21T23:13:54.711Z,3.00
2023-05-21T23:16:24.184Z,2.00
2023-05-21T23:18:52.525Z,2.00
2023-05-21T23:21:22.037Z,3.00
2023-05-21T23:23:50.136Z,4.00
2023-05-21T23:27:03.607Z,2.50
2023-05-21T23:32:01.288Z,3.00
2023-05-21T23:34:29.368Z,4.00
2023-05-21T23:37:57.850Z,3.00
2023-05-21T23:40:26.251Z,4.00
2023-05-21T23:42:54.324Z,2.00
2023-05-21T23:45:22.496Z,3.00
2023-05-21T23:48:51.298Z,4.00
2023-05-21T23:51:40.458Z,2.00
2023-05-21T23:54:08.617Z,1.00
2023-05-21T23:56:36.564Z,3.50
2023-05-21T23:59:04.526Z,4.00
